Airfield :
LOGIN :

Register | Disclaimer

   EN    FR    IT 

 










Legend :    VFR   Marginal VFR   IFR   Intensive IFR   Very Intensive IFR
Visi :
Ceiling :
>= 8 km
>= 3000ft
5 to 8 km
1000 to 3000 ft
1500m to 5 km
500 to 1000 ft
800 to 1500m
200 to 500 ft
< 800m
< 200 ft
Symbols :   Thunderstorms  Fog  Heavy snow  Heavy precipitations  Wind > 20 kt
SIGMETs :     Misc.  Thunderstorms  Icing  Turbulence  Mountain Waves  Volcanic Ashes







- Airport Elevation : 171 ft
- IATA code : EGC
- Download approach charts


LFBE - Bergerac

CURRENT METAR :
  • 251330Z AUTO 27016KT 9999 FEW048/// SCT088/// ///TCU 18/09 Q1006 TEMPO 4000 SHRA BECMG 20008KT

EXPIRED METARs :
  • 251300Z AUTO 26015KT 9999 ///CB 17/09 Q1006 TEMPO 4000 SHRA BECMG 20008KT
  • 251230Z AUTO 23015G26KT 190V280 9999 VCTS ///CB 18/07 Q1006 TEMPO 4000 SHRA BECMG 20008KT
  • 251200Z AUTO 22011KT 170V250 9999 FEW044/// SCT052/// BKN150/// ///CB 17/08 Q1006 TEMPO 4000 SHRA
  • 251130Z AUTO 21009KT 170V250 9999 FEW041 BKN048 BKN056 17/09 Q1006 TEMPO 4000 SHRA BKN030TCU
  • 251100Z AUTO 22011KT 170V250 9999 FEW034 SCT180 15/08 Q1006 TEMPO 4000 SHRA BKN030TCU

TAF TAF LFBE
Valid from the 25 at 12:00 until the 26 at 12:00 UTC


251100Z 2512/2612 20008KT 9999 BKN020
PROB40
TEMPO 2512/2516 4000 SHRA BKN030TCU
TEMPO 2522/2612 21015G35KT 4000 SHRA FEW020CB BKN030TCU
No reported NOTAMs for that airfield.
3 SIGMETs reported for the Bordeaux FIR (LFBB) :
 
Embedded thunderstorms
LFBB SIGMET 12 VALID 251350/251600 LFPW
LFBB BORDEAUX FIR/UIR EMBD TS OBS AT 1350Z WI N4215 E00200 - N4230 E00030 - N4715 E00000 - N4715 E00145 - N4215 E00200 TOP FL290 MOV NE 25KT NC=
Severe turbulence
LFBB SIGMET 11 VALID 251330/251730 LFPW
LFBB BORDEAUX FIR/UIR SEV TURB FCST WI N4245 E00230 - N4215 E00230 - N4245 W00015 - N4300 W00015 - N4245 E00230 SFC/FL120 STNR WKN=
Severe turbulence
LFBB SIGMET 10 VALID 251200/251400 LFPW
LFBB BORDEAUX FIR/UIR SEV TURB OBS AT 1200Z WI N4230 E00115 - N4300 W00130 - N4530 E00130 - N4415 E00245 - N4230 E00115 FL300/410 MOV E 10KT NC=



MET'MAP, your aeronautical weather chart ! - Copyright ORBIFLY December 2007 - Disclaimer

ORBIFLY MET'MAP TEAM :

Programming & Development : Alexandra Zaïnal
Concept & Development : Baudouin d'Aumeries
Co-Development & Prog : Marc-Olivier Méhu
Technical & hardware support : Manuel Goepfert

Contact : metmap@orbifly.com




SOURCES & CREDITS :

   NOAA